sensor_id;sensor_type;location;lat;lon;timestamp;P1;durP1;ratioP1;P2;durP2;ratioP2
78728;SDS011;68252;44.944;20.218;2023-11-21T00:01:11;97.70;;;46.90;;
78728;SDS011;68252;44.944;20.218;2023-11-21T00:03:37;96.75;;;43.45;;
78728;SDS011;68252;44.944;20.218;2023-11-21T00:06:03;102.93;;;45.08;;
78728;SDS011;68252;44.944;20.218;2023-11-21T00:08:29;98.03;;;43.28;;
78728;SDS011;68252;44.944;20.218;2023-11-21T00:10:55;94.75;;;41.88;;
78728;SDS011;68252;44.944;20.218;2023-11-21T00:13:22;96.30;;;43.67;;
78728;SDS011;68252;44.944;20.218;2023-11-21T00:15:48;89.55;;;41.85;;
78728;SDS011;68252;44.944;20.218;2023-11-21T00:18:14;87.85;;;41.58;;
78728;SDS011;68252;44.944;20.218;2023-11-21T00:20:41;87.95;;;41.70;;
78728;SDS011;68252;44.944;20.218;2023-11-21T00:23:07;84.93;;;41.38;;
78728;SDS011;68252;44.944;20.218;2023-11-21T00:25:35;97.53;;;42.13;;
78728;SDS011;68252;44.944;20.218;2023-11-21T00:28:01;91.70;;;39.40;;
78728;SDS011;68252;44.944;20.218;2023-11-21T00:30:27;84.90;;;38.88;;
78728;SDS011;68252;44.944;20.218;2023-11-21T00:32:54;95.70;;;42.17;;
78728;SDS011;68252;44.944;20.218;2023-11-21T00:35:20;91.22;;;41.45;;
78728;SDS011;68252;44.944;20.218;2023-11-21T00:37:46;84.68;;;39.33;;
78728;SDS011;68252;44.944;20.218;2023-11-21T00:40:14;80.82;;;40.00;;
78728;SDS011;68252;44.944;20.218;2023-11-21T00:42:44;111.30;;;39.80;;
78728;SDS011;68252;44.944;20.218;2023-11-21T00:45:11;83.82;;;39.78;;
78728;SDS011;68252;44.944;20.218;2023-11-21T00:47:37;76.10;;;37.17;;
78728;SDS011;68252;44.944;20.218;2023-11-21T00:50:04;90.82;;;38.50;;
78728;SDS011;68252;44.944;20.218;2023-11-21T00:52:31;90.80;;;40.17;;
78728;SDS011;68252;44.944;20.218;2023-11-21T00:54:57;82.40;;;40.65;;
78728;SDS011;68252;44.944;20.218;2023-11-21T00:57:28;74.68;;;37.55;;
78728;SDS011;68252;44.944;20.218;2023-11-21T00:59:54;74.35;;;38.10;;
78728;SDS011;68252;44.944;20.218;2023-11-21T01:02:20;75.25;;;37.47;;
78728;SDS011;68252;44.944;20.218;2023-11-21T01:04:46;79.97;;;36.85;;
78728;SDS011;68252;44.944;20.218;2023-11-21T01:07:13;72.15;;;35.67;;
78728;SDS011;68252;44.944;20.218;2023-11-21T01:09:39;66.38;;;35.83;;
78728;SDS011;68252;44.944;20.218;2023-11-21T01:12:05;77.72;;;36.25;;
78728;SDS011;68252;44.944;20.218;2023-11-21T01:14:31;69.95;;;35.97;;
78728;SDS011;68252;44.944;20.218;2023-11-21T01:16:57;75.65;;;37.60;;
78728;SDS011;68252;44.944;20.218;2023-11-21T01:19:24;80.53;;;36.63;;
78728;SDS011;68252;44.944;20.218;2023-11-21T01:21:50;73.55;;;34.92;;
78728;SDS011;68252;44.944;20.218;2023-11-21T01:24:17;86.53;;;37.97;;
78728;SDS011;68252;44.944;20.218;2023-11-21T01:26:43;83.25;;;40.60;;
78728;SDS011;68252;44.944;20.218;2023-11-21T01:29:11;88.07;;;41.75;;
78728;SDS011;68252;44.944;20.218;2023-11-21T01:31:37;77.65;;;40.30;;
78728;SDS011;68252;44.944;20.218;2023-11-21T01:34:03;90.97;;;43.22;;
78728;SDS011;68252;44.944;20.218;2023-11-21T01:36:33;84.38;;;44.80;;
78728;SDS011;68252;44.944;20.218;2023-11-21T01:38:59;92.18;;;49.60;;
78728;SDS011;68252;44.944;20.218;2023-11-21T01:41:28;94.07;;;49.05;;
78728;SDS011;68252;44.944;20.218;2023-11-21T01:43:54;99.70;;;51.15;;
78728;SDS011;68252;44.944;20.218;2023-11-21T01:46:21;93.60;;;51.33;;
78728;SDS011;68252;44.944;20.218;2023-11-21T01:48:48;109.90;;;54.63;;
78728;SDS011;68252;44.944;20.218;2023-11-21T01:51:14;105.85;;;57.10;;
78728;SDS011;68252;44.944;20.218;2023-11-21T01:53:41;108.60;;;56.35;;
78728;SDS011;68252;44.944;20.218;2023-11-21T01:56:07;105.05;;;56.30;;
78728;SDS011;68252;44.944;20.218;2023-11-21T01:58:34;109.70;;;59.25;;
78728;SDS011;68252;44.944;20.218;2023-11-21T02:01:00;104.25;;;56.78;;
78728;SDS011;68252;44.944;20.218;2023-11-21T02:03:26;94.03;;;54.17;;
78728;SDS011;68252;44.944;20.218;2023-11-21T02:05:53;98.82;;;53.72;;
78728;SDS011;68252;44.944;20.218;2023-11-21T02:08:19;94.15;;;50.58;;
78728;SDS011;68252;44.944;20.218;2023-11-21T02:10:45;97.28;;;52.70;;
78728;SDS011;68252;44.944;20.218;2023-11-21T02:13:12;88.50;;;50.33;;
78728;SDS011;68252;44.944;20.218;2023-11-21T02:15:38;91.40;;;49.15;;
78728;SDS011;68252;44.944;20.218;2023-11-21T02:18:06;83.45;;;45.63;;
78728;SDS011;68252;44.944;20.218;2023-11-21T02:20:32;82.35;;;45.65;;
78728;SDS011;68252;44.944;20.218;2023-11-21T02:23:00;83.53;;;45.45;;
78728;SDS011;68252;44.944;20.218;2023-11-21T02:25:27;79.00;;;41.75;;
78728;SDS011;68252;44.944;20.218;2023-11-21T02:27:54;75.95;;;41.90;;
78728;SDS011;68252;44.944;20.218;2023-11-21T02:30:20;84.35;;;44.33;;
78728;SDS011;68252;44.944;20.218;2023-11-21T02:32:47;74.97;;;42.95;;
78728;SDS011;68252;44.944;20.218;2023-11-21T02:35:13;88.30;;;43.33;;
78728;SDS011;68252;44.944;20.218;2023-11-21T02:37:41;84.15;;;41.92;;
78728;SDS011;68252;44.944;20.218;2023-11-21T02:40:08;75.50;;;42.10;;
78728;SDS011;68252;44.944;20.218;2023-11-21T02:42:35;87.75;;;40.28;;
78728;SDS011;68252;44.944;20.218;2023-11-21T02:45:01;79.47;;;42.05;;
78728;SDS011;68252;44.944;20.218;2023-11-21T02:47:27;80.13;;;41.60;;
78728;SDS011;68252;44.944;20.218;2023-11-21T02:49:53;79.32;;;40.72;;
78728;SDS011;68252;44.944;20.218;2023-11-21T02:52:19;82.57;;;40.47;;
78728;SDS011;68252;44.944;20.218;2023-11-21T02:54:46;77.85;;;42.13;;
78728;SDS011;68252;44.944;20.218;2023-11-21T02:57:12;76.63;;;40.85;;
78728;SDS011;68252;44.944;20.218;2023-11-21T02:59:38;76.45;;;39.38;;
78728;SDS011;68252;44.944;20.218;2023-11-21T03:02:04;77.18;;;37.65;;
78728;SDS011;68252;44.944;20.218;2023-11-21T03:04:33;71.20;;;37.38;;
78728;SDS011;68252;44.944;20.218;2023-11-21T03:07:00;68.43;;;37.08;;
78728;SDS011;68252;44.944;20.218;2023-11-21T03:09:26;70.72;;;36.90;;
78728;SDS011;68252;44.944;20.218;2023-11-21T03:11:53;62.78;;;34.33;;
78728;SDS011;68252;44.944;20.218;2023-11-21T03:14:19;71.60;;;33.67;;
78728;SDS011;68252;44.944;20.218;2023-11-21T03:16:45;67.10;;;34.55;;
78728;SDS011;68252;44.944;20.218;2023-11-21T03:19:11;65.32;;;34.55;;
78728;SDS011;68252;44.944;20.218;2023-11-21T03:21:37;58.92;;;34.30;;
78728;SDS011;68252;44.944;20.218;2023-11-21T03:24:03;62.30;;;34.50;;
78728;SDS011;68252;44.944;20.218;2023-11-21T03:26:30;68.53;;;34.40;;
78728;SDS011;68252;44.944;20.218;2023-11-21T03:28:56;63.33;;;32.88;;
78728;SDS011;68252;44.944;20.218;2023-11-21T03:31:22;65.88;;;34.38;;
78728;SDS011;68252;44.944;20.218;2023-11-21T03:33:48;60.33;;;32.97;;
78728;SDS011;68252;44.944;20.218;2023-11-21T03:36:14;61.72;;;33.65;;
78728;SDS011;68252;44.944;20.218;2023-11-21T03:38:40;63.58;;;33.30;;
78728;SDS011;68252;44.944;20.218;2023-11-21T03:41:07;63.97;;;33.63;;
78728;SDS011;68252;44.944;20.218;2023-11-21T03:43:36;72.80;;;33.80;;
78728;SDS011;68252;44.944;20.218;2023-11-21T03:46:02;72.72;;;32.95;;
78728;SDS011;68252;44.944;20.218;2023-11-21T03:48:29;59.42;;;32.92;;
78728;SDS011;68252;44.944;20.218;2023-11-21T03:50:55;62.80;;;33.78;;
78728;SDS011;68252;44.944;20.218;2023-11-21T03:53:21;59.13;;;33.25;;
78728;SDS011;68252;44.944;20.218;2023-11-21T03:55:50;69.72;;;35.40;;
78728;SDS011;68252;44.944;20.218;2023-11-21T03:58:16;58.78;;;33.42;;
78728;SDS011;68252;44.944;20.218;2023-11-21T04:00:46;64.80;;;32.13;;
78728;SDS011;68252;44.944;20.218;2023-11-21T04:03:13;54.35;;;30.45;;
78728;SDS011;68252;44.944;20.218;2023-11-21T04:05:40;69.70;;;31.38;;
78728;SDS011;68252;44.944;20.218;2023-11-21T04:08:06;60.53;;;30.58;;
78728;SDS011;68252;44.944;20.218;2023-11-21T04:10:35;56.83;;;30.87;;
78728;SDS011;68252;44.944;20.218;2023-11-21T04:13:01;61.97;;;32.55;;
78728;SDS011;68252;44.944;20.218;2023-11-21T04:15:27;80.70;;;34.38;;
78728;SDS011;68252;44.944;20.218;2023-11-21T04:17:53;65.00;;;30.38;;
78728;SDS011;68252;44.944;20.218;2023-11-21T04:20:19;70.22;;;33.10;;
78728;SDS011;68252;44.944;20.218;2023-11-21T04:22:45;67.95;;;30.40;;
78728;SDS011;68252;44.944;20.218;2023-11-21T04:25:14;56.37;;;29.73;;
78728;SDS011;68252;44.944;20.218;2023-11-21T04:27:41;63.40;;;30.08;;
78728;SDS011;68252;44.944;20.218;2023-11-21T04:32:36;63.17;;;28.98;;
78728;SDS011;68252;44.944;20.218;2023-11-21T04:35:05;73.03;;;31.52;;
78728;SDS011;68252;44.944;20.218;2023-11-21T04:37:33;81.28;;;32.25;;
78728;SDS011;68252;44.944;20.218;2023-11-21T04:40:02;60.55;;;30.15;;
78728;SDS011;68252;44.944;20.218;2023-11-21T04:42:33;68.72;;;33.20;;
78728;SDS011;68252;44.944;20.218;2023-11-21T04:45:07;64.00;;;30.75;;
78728;SDS011;68252;44.944;20.218;2023-11-21T04:47:34;70.78;;;31.98;;
78728;SDS011;68252;44.944;20.218;2023-11-21T04:50:01;80.05;;;31.30;;
78728;SDS011;68252;44.944;20.218;2023-11-21T04:52:28;71.88;;;32.75;;
78728;SDS011;68252;44.944;20.218;2023-11-21T04:54:54;87.57;;;34.58;;
78728;SDS011;68252;44.944;20.218;2023-11-21T04:57:22;85.15;;;32.50;;
78728;SDS011;68252;44.944;20.218;2023-11-21T04:59:48;57.80;;;30.17;;
78728;SDS011;68252;44.944;20.218;2023-11-21T05:02:15;61.15;;;30.15;;
78728;SDS011;68252;44.944;20.218;2023-11-21T05:04:44;69.18;;;33.00;;
78728;SDS011;68252;44.944;20.218;2023-11-21T05:07:10;71.07;;;33.63;;
78728;SDS011;68252;44.944;20.218;2023-11-21T05:09:40;97.50;;;32.03;;
78728;SDS011;68252;44.944;20.218;2023-11-21T05:12:06;71.90;;;30.33;;
78728;SDS011;68252;44.944;20.218;2023-11-21T05:14:33;68.65;;;29.33;;
78728;SDS011;68252;44.944;20.218;2023-11-21T05:16:59;64.20;;;29.58;;
78728;SDS011;68252;44.944;20.218;2023-11-21T05:19:26;71.82;;;30.50;;
78728;SDS011;68252;44.944;20.218;2023-11-21T05:21:52;77.53;;;31.33;;
78728;SDS011;68252;44.944;20.218;2023-11-21T05:24:21;74.00;;;31.05;;
78728;SDS011;68252;44.944;20.218;2023-11-21T05:26:47;65.63;;;30.25;;
78728;SDS011;68252;44.944;20.218;2023-11-21T05:29:15;65.13;;;29.00;;
78728;SDS011;68252;44.944;20.218;2023-11-21T05:31:41;79.43;;;29.48;;
78728;SDS011;68252;44.944;20.218;2023-11-21T05:34:07;54.85;;;28.90;;
78728;SDS011;68252;44.944;20.218;2023-11-21T05:36:33;67.63;;;30.40;;
78728;SDS011;68252;44.944;20.218;2023-11-21T05:38:59;73.78;;;32.50;;
78728;SDS011;68252;44.944;20.218;2023-11-21T05:41:26;68.70;;;29.58;;
78728;SDS011;68252;44.944;20.218;2023-11-21T05:43:52;61.65;;;28.05;;
78728;SDS011;68252;44.944;20.218;2023-11-21T05:46:19;62.75;;;30.02;;
78728;SDS011;68252;44.944;20.218;2023-11-21T05:48:45;89.50;;;31.77;;
78728;SDS011;68252;44.944;20.218;2023-11-21T05:51:12;61.15;;;31.10;;
78728;SDS011;68252;44.944;20.218;2023-11-21T05:53:39;68.43;;;28.70;;
78728;SDS011;68252;44.944;20.218;2023-11-21T05:56:05;77.13;;;28.55;;
78728;SDS011;68252;44.944;20.218;2023-11-21T05:58:31;57.25;;;27.92;;
78728;SDS011;68252;44.944;20.218;2023-11-21T06:00:57;64.57;;;29.38;;
78728;SDS011;68252;44.944;20.218;2023-11-21T06:03:25;63.03;;;28.02;;
78728;SDS011;68252;44.944;20.218;2023-11-21T06:05:51;64.68;;;28.27;;
78728;SDS011;68252;44.944;20.218;2023-11-21T06:08:17;73.60;;;29.45;;
78728;SDS011;68252;44.944;20.218;2023-11-21T06:10:43;59.75;;;26.95;;
78728;SDS011;68252;44.944;20.218;2023-11-21T06:13:14;64.35;;;27.58;;
78728;SDS011;68252;44.944;20.218;2023-11-21T06:15:40;61.22;;;29.52;;
78728;SDS011;68252;44.944;20.218;2023-11-21T06:18:07;67.15;;;33.13;;
78728;SDS011;68252;44.944;20.218;2023-11-21T06:20:35;65.85;;;27.92;;
78728;SDS011;68252;44.944;20.218;2023-11-21T06:23:02;70.72;;;31.55;;
78728;SDS011;68252;44.944;20.218;2023-11-21T06:25:29;140.82;;;49.33;;
78728;SDS011;68252;44.944;20.218;2023-11-21T06:27:58;100.43;;;42.25;;
78728;SDS011;68252;44.944;20.218;2023-11-21T06:30:24;74.03;;;36.58;;
78728;SDS011;68252;44.944;20.218;2023-11-21T06:32:50;80.60;;;31.30;;
78728;SDS011;68252;44.944;20.218;2023-11-21T06:35:17;52.55;;;26.02;;
78728;SDS011;68252;44.944;20.218;2023-11-21T06:37:43;79.82;;;30.55;;
78728;SDS011;68252;44.944;20.218;2023-11-21T06:40:12;53.47;;;26.27;;
78728;SDS011;68252;44.944;20.218;2023-11-21T06:42:40;54.20;;;25.55;;
78728;SDS011;68252;44.944;20.218;2023-11-21T06:45:06;59.92;;;26.25;;
78728;SDS011;68252;44.944;20.218;2023-11-21T06:47:35;67.32;;;24.60;;
78728;SDS011;68252;44.944;20.218;2023-11-21T06:50:03;48.63;;;24.15;;
78728;SDS011;68252;44.944;20.218;2023-11-21T06:52:29;47.97;;;23.83;;
78728;SDS011;68252;44.944;20.218;2023-11-21T06:54:55;52.92;;;23.17;;
78728;SDS011;68252;44.944;20.218;2023-11-21T06:57:24;51.17;;;24.33;;
78728;SDS011;68252;44.944;20.218;2023-11-21T06:59:50;63.92;;;24.08;;
78728;SDS011;68252;44.944;20.218;2023-11-21T07:02:16;61.30;;;25.33;;
78728;SDS011;68252;44.944;20.218;2023-11-21T07:04:44;92.38;;;28.42;;
78728;SDS011;68252;44.944;20.218;2023-11-21T07:07:11;66.22;;;24.77;;
78728;SDS011;68252;44.944;20.218;2023-11-21T07:09:37;70.78;;;28.83;;
78728;SDS011;68252;44.944;20.218;2023-11-21T07:12:03;70.82;;;23.52;;
78728;SDS011;68252;44.944;20.218;2023-11-21T07:14:32;68.63;;;23.40;;
78728;SDS011;68252;44.944;20.218;2023-11-21T07:16:58;43.25;;;23.88;;
78728;SDS011;68252;44.944;20.218;2023-11-21T07:19:24;50.05;;;24.35;;
78728;SDS011;68252;44.944;20.218;2023-11-21T07:21:50;65.07;;;27.67;;
78728;SDS011;68252;44.944;20.218;2023-11-21T07:24:17;58.05;;;25.02;;
78728;SDS011;68252;44.944;20.218;2023-11-21T07:26:43;53.55;;;26.45;;
78728;SDS011;68252;44.944;20.218;2023-11-21T07:29:09;52.22;;;24.98;;
78728;SDS011;68252;44.944;20.218;2023-11-21T07:31:39;49.75;;;23.73;;
78728;SDS011;68252;44.944;20.218;2023-11-21T07:36:33;47.15;;;23.30;;
78728;SDS011;68252;44.944;20.218;2023-11-21T07:38:59;60.42;;;26.88;;
78728;SDS011;68252;44.944;20.218;2023-11-21T07:41:27;62.35;;;25.25;;
78728;SDS011;68252;44.944;20.218;2023-11-21T07:43:54;56.70;;;26.30;;
78728;SDS011;68252;44.944;20.218;2023-11-21T07:46:21;48.25;;;23.40;;
78728;SDS011;68252;44.944;20.218;2023-11-21T07:48:47;54.67;;;22.83;;
78728;SDS011;68252;44.944;20.218;2023-11-21T07:51:13;60.33;;;23.33;;
78728;SDS011;68252;44.944;20.218;2023-11-21T07:53:40;44.13;;;23.30;;
78728;SDS011;68252;44.944;20.218;2023-11-21T07:56:06;66.05;;;22.15;;
78728;SDS011;68252;44.944;20.218;2023-11-21T07:58:33;86.45;;;24.35;;
78728;SDS011;68252;44.944;20.218;2023-11-21T08:01:02;116.05;;;26.58;;
78728;SDS011;68252;44.944;20.218;2023-11-21T08:03:29;68.85;;;23.10;;
78728;SDS011;68252;44.944;20.218;2023-11-21T08:05:55;53.20;;;22.88;;
78728;SDS011;68252;44.944;20.218;2023-11-21T08:08:22;56.50;;;21.60;;
78728;SDS011;68252;44.944;20.218;2023-11-21T08:10:48;59.13;;;23.17;;
78728;SDS011;68252;44.944;20.218;2023-11-21T08:13:21;58.80;;;21.92;;
78728;SDS011;68252;44.944;20.218;2023-11-21T08:15:47;58.80;;;25.25;;
78728;SDS011;68252;44.944;20.218;2023-11-21T08:18:13;65.88;;;32.72;;
78728;SDS011;68252;44.944;20.218;2023-11-21T08:20:40;81.63;;;25.92;;
78728;SDS011;68252;44.944;20.218;2023-11-21T08:23:06;76.13;;;24.42;;
78728;SDS011;68252;44.944;20.218;2023-11-21T08:25:32;85.32;;;30.00;;
78728;SDS011;68252;44.944;20.218;2023-11-21T08:27:59;106.82;;;30.85;;
78728;SDS011;68252;44.944;20.218;2023-11-21T08:30:26;60.40;;;23.02;;
78728;SDS011;68252;44.944;20.218;2023-11-21T08:32:55;58.78;;;25.17;;
78728;SDS011;68252;44.944;20.218;2023-11-21T08:35:24;45.88;;;22.23;;
78728;SDS011;68252;44.944;20.218;2023-11-21T08:37:53;59.38;;;23.17;;
78728;SDS011;68252;44.944;20.218;2023-11-21T08:40:20;45.90;;;23.08;;
78728;SDS011;68252;44.944;20.218;2023-11-21T08:42:46;50.33;;;22.90;;
78728;SDS011;68252;44.944;20.218;2023-11-21T08:45:13;47.13;;;23.13;;
78728;SDS011;68252;44.944;20.218;2023-11-21T08:47:39;54.45;;;24.20;;
78728;SDS011;68252;44.944;20.218;2023-11-21T08:50:08;48.55;;;23.30;;
78728;SDS011;68252;44.944;20.218;2023-11-21T08:52:34;64.05;;;25.80;;
78728;SDS011;68252;44.944;20.218;2023-11-21T08:55:02;41.05;;;23.27;;
78728;SDS011;68252;44.944;20.218;2023-11-21T08:57:33;52.00;;;24.38;;
78728;SDS011;68252;44.944;20.218;2023-11-21T09:00:00;57.58;;;23.33;;
78728;SDS011;68252;44.944;20.218;2023-11-21T09:02:26;55.97;;;23.60;;
78728;SDS011;68252;44.944;20.218;2023-11-21T09:04:52;53.75;;;23.52;;
78728;SDS011;68252;44.944;20.218;2023-11-21T09:07:18;48.72;;;23.42;;
78728;SDS011;68252;44.944;20.218;2023-11-21T09:09:48;62.67;;;22.88;;
78728;SDS011;68252;44.944;20.218;2023-11-21T09:12:14;70.95;;;24.98;;
78728;SDS011;68252;44.944;20.218;2023-11-21T09:14:44;71.75;;;25.45;;
78728;SDS011;68252;44.944;20.218;2023-11-21T09:17:10;54.53;;;23.80;;
78728;SDS011;68252;44.944;20.218;2023-11-21T09:19:40;66.10;;;24.58;;
78728;SDS011;68252;44.944;20.218;2023-11-21T09:22:06;50.67;;;20.65;;
78728;SDS011;68252;44.944;20.218;2023-11-21T09:24:33;44.13;;;20.63;;
78728;SDS011;68252;44.944;20.218;2023-11-21T09:26:59;44.67;;;22.15;;
78728;SDS011;68252;44.944;20.218;2023-11-21T09:29:28;66.95;;;22.98;;
78728;SDS011;68252;44.944;20.218;2023-11-21T09:31:54;48.63;;;23.38;;
78728;SDS011;68252;44.944;20.218;2023-11-21T09:34:22;43.80;;;21.10;;
78728;SDS011;68252;44.944;20.218;2023-11-21T09:36:48;48.13;;;23.65;;
78728;SDS011;68252;44.944;20.218;2023-11-21T09:39:14;46.55;;;22.48;;
78728;SDS011;68252;44.944;20.218;2023-11-21T09:41:43;45.08;;;23.25;;
78728;SDS011;68252;44.944;20.218;2023-11-21T09:44:09;62.40;;;23.77;;
78728;SDS011;68252;44.944;20.218;2023-11-21T09:46:37;54.88;;;20.38;;
78728;SDS011;68252;44.944;20.218;2023-11-21T09:49:06;44.53;;;20.13;;
78728;SDS011;68252;44.944;20.218;2023-11-21T09:51:37;46.58;;;20.13;;
78728;SDS011;68252;44.944;20.218;2023-11-21T09:54:05;40.40;;;19.63;;
78728;SDS011;68252;44.944;20.218;2023-11-21T09:56:33;41.22;;;18.55;;
78728;SDS011;68252;44.944;20.218;2023-11-21T09:59:01;49.10;;;19.98;;
78728;SDS011;68252;44.944;20.218;2023-11-21T10:01:33;55.00;;;18.60;;
78728;SDS011;68252;44.944;20.218;2023-11-21T10:04:02;41.33;;;18.90;;
78728;SDS011;68252;44.944;20.218;2023-11-21T10:06:28;54.45;;;21.42;;
78728;SDS011;68252;44.944;20.218;2023-11-21T10:08:56;45.20;;;19.25;;
78728;SDS011;68252;44.944;20.218;2023-11-21T10:11:24;50.55;;;18.55;;
78728;SDS011;68252;44.944;20.218;2023-11-21T10:13:54;53.28;;;18.73;;
78728;SDS011;68252;44.944;20.218;2023-11-21T10:16:22;71.22;;;17.88;;
78728;SDS011;68252;44.944;20.218;2023-11-21T10:18:52;43.53;;;16.58;;
78728;SDS011;68252;44.944;20.218;2023-11-21T10:21:20;42.35;;;18.08;;
78728;SDS011;68252;44.944;20.218;2023-11-21T10:23:47;41.20;;;17.42;;
78728;SDS011;68252;44.944;20.218;2023-11-21T10:26:13;31.23;;;15.90;;
78728;SDS011;68252;44.944;20.218;2023-11-21T10:29:01;38.78;;;16.67;;
78728;SDS011;68252;44.944;20.218;2023-11-21T10:31:30;29.48;;;17.35;;
78728;SDS011;68252;44.944;20.218;2023-11-21T10:34:11;31.63;;;16.40;;
78728;SDS011;68252;44.944;20.218;2023-11-21T10:36:37;30.48;;;15.75;;
78728;SDS011;68252;44.944;20.218;2023-11-21T10:39:03;30.52;;;16.33;;
78728;SDS011;68252;44.944;20.218;2023-11-21T10:41:29;29.40;;;15.70;;
78728;SDS011;68252;44.944;20.218;2023-11-21T10:43:55;30.55;;;16.15;;
78728;SDS011;68252;44.944;20.218;2023-11-21T10:46:21;29.95;;;15.85;;
78728;SDS011;68252;44.944;20.218;2023-11-21T10:48:52;28.70;;;15.85;;
78728;SDS011;68252;44.944;20.218;2023-11-21T10:51:20;43.92;;;17.95;;
78728;SDS011;68252;44.944;20.218;2023-11-21T10:53:46;34.40;;;16.55;;
78728;SDS011;68252;44.944;20.218;2023-11-21T10:56:13;35.83;;;16.95;;
78728;SDS011;68252;44.944;20.218;2023-11-21T10:58:45;37.25;;;17.48;;
78728;SDS011;68252;44.944;20.218;2023-11-21T11:01:11;41.83;;;19.08;;
78728;SDS011;68252;44.944;20.218;2023-11-21T11:03:39;41.33;;;16.33;;
78728;SDS011;68252;44.944;20.218;2023-11-21T11:06:05;32.47;;;17.02;;
78728;SDS011;68252;44.944;20.218;2023-11-21T11:08:36;29.90;;;17.05;;
78728;SDS011;68252;44.944;20.218;2023-11-21T11:11:03;38.03;;;18.55;;
78728;SDS011;68252;44.944;20.218;2023-11-21T11:13:29;41.15;;;18.27;;
78728;SDS011;68252;44.944;20.218;2023-11-21T11:15:57;55.13;;;17.60;;
78728;SDS011;68252;44.944;20.218;2023-11-21T11:18:30;38.72;;;17.92;;
78728;SDS011;68252;44.944;20.218;2023-11-21T11:20:59;46.35;;;17.02;;
78728;SDS011;68252;44.944;20.218;2023-11-21T11:26:16;29.77;;;15.60;;
78728;SDS011;68252;44.944;20.218;2023-11-21T11:28:51;43.60;;;15.65;;
78728;SDS011;68252;44.944;20.218;2023-11-21T11:41:51;26.80;;;14.25;;
78728;SDS011;68252;44.944;20.218;2023-11-21T11:47:03;30.02;;;15.65;;
78728;SDS011;68252;44.944;20.218;2023-11-21T11:49:29;34.13;;;15.40;;
78728;SDS011;68252;44.944;20.218;2023-11-21T11:54:56;22.67;;;13.50;;
78728;SDS011;68252;44.944;20.218;2023-11-21T11:57:26;23.55;;;12.80;;
78728;SDS011;68252;44.944;20.218;2023-11-21T12:02:21;31.70;;;17.75;;
78728;SDS011;68252;44.944;20.218;2023-11-21T12:04:47;25.50;;;13.65;;
78728;SDS011;68252;44.944;20.218;2023-11-21T12:07:13;23.73;;;13.73;;
78728;SDS011;68252;44.944;20.218;2023-11-21T12:09:40;25.50;;;14.63;;
78728;SDS011;68252;44.944;20.218;2023-11-21T12:12:06;27.35;;;13.73;;
78728;SDS011;68252;44.944;20.218;2023-11-21T12:14:34;28.98;;;15.63;;
78728;SDS011;68252;44.944;20.218;2023-11-21T12:17:02;22.85;;;13.43;;
78728;SDS011;68252;44.944;20.218;2023-11-21T12:19:29;28.45;;;14.57;;
78728;SDS011;68252;44.944;20.218;2023-11-21T12:21:55;26.80;;;14.40;;
78728;SDS011;68252;44.944;20.218;2023-11-21T12:24:22;25.42;;;14.95;;
78728;SDS011;68252;44.944;20.218;2023-11-21T12:26:48;29.08;;;15.35;;
78728;SDS011;68252;44.944;20.218;2023-11-21T12:29:14;26.08;;;15.60;;
78728;SDS011;68252;44.944;20.218;2023-11-21T12:31:41;43.35;;;16.95;;
78728;SDS011;68252;44.944;20.218;2023-11-21T12:34:08;34.45;;;17.73;;
78728;SDS011;68252;44.944;20.218;2023-11-21T12:36:36;30.73;;;17.65;;
78728;SDS011;68252;44.944;20.218;2023-11-21T12:39:02;39.08;;;18.38;;
78728;SDS011;68252;44.944;20.218;2023-11-21T12:41:28;33.33;;;18.15;;
78728;SDS011;68252;44.944;20.218;2023-11-21T12:43:55;33.10;;;17.35;;
78728;SDS011;68252;44.944;20.218;2023-11-21T12:46:23;35.45;;;17.10;;
78728;SDS011;68252;44.944;20.218;2023-11-21T12:48:53;30.92;;;17.00;;
78728;SDS011;68252;44.944;20.218;2023-11-21T12:51:20;32.17;;;16.98;;
78728;SDS011;68252;44.944;20.218;2023-11-21T12:53:47;34.85;;;17.70;;
78728;SDS011;68252;44.944;20.218;2023-11-21T12:56:13;29.25;;;16.33;;
78728;SDS011;68252;44.944;20.218;2023-11-21T12:58:43;28.38;;;16.70;;
78728;SDS011;68252;44.944;20.218;2023-11-21T13:01:13;31.70;;;17.95;;
78728;SDS011;68252;44.944;20.218;2023-11-21T13:03:47;28.58;;;15.90;;
78728;SDS011;68252;44.944;20.218;2023-11-21T13:06:15;35.55;;;17.55;;
78728;SDS011;68252;44.944;20.218;2023-11-21T13:08:43;36.53;;;21.70;;
78728;SDS011;68252;44.944;20.218;2023-11-21T13:11:10;34.10;;;17.30;;
78728;SDS011;68252;44.944;20.218;2023-11-21T13:13:36;43.17;;;22.17;;
78728;SDS011;68252;44.944;20.218;2023-11-21T13:16:04;35.08;;;19.88;;
78728;SDS011;68252;44.944;20.218;2023-11-21T13:18:30;44.78;;;24.60;;
78728;SDS011;68252;44.944;20.218;2023-11-21T13:20:57;38.78;;;21.92;;
78728;SDS011;68252;44.944;20.218;2023-11-21T13:23:24;38.10;;;20.20;;
78728;SDS011;68252;44.944;20.218;2023-11-21T13:25:50;40.25;;;20.73;;
78728;SDS011;68252;44.944;20.218;2023-11-21T13:28:17;47.22;;;23.02;;
78728;SDS011;68252;44.944;20.218;2023-11-21T13:30:46;45.33;;;24.33;;
78728;SDS011;68252;44.944;20.218;2023-11-21T13:33:13;54.53;;;25.92;;
78728;SDS011;68252;44.944;20.218;2023-11-21T13:35:46;54.47;;;26.70;;
78728;SDS011;68252;44.944;20.218;2023-11-21T13:38:17;48.30;;;25.20;;
78728;SDS011;68252;44.944;20.218;2023-11-21T13:40:48;45.53;;;24.05;;
78728;SDS011;68252;44.944;20.218;2023-11-21T13:43:15;42.50;;;21.73;;
78728;SDS011;68252;44.944;20.218;2023-11-21T13:45:43;44.50;;;22.00;;
78728;SDS011;68252;44.944;20.218;2023-11-21T13:48:10;41.70;;;21.63;;
78728;SDS011;68252;44.944;20.218;2023-11-21T13:50:45;36.63;;;20.15;;
78728;SDS011;68252;44.944;20.218;2023-11-21T13:53:34;41.80;;;21.27;;
78728;SDS011;68252;44.944;20.218;2023-11-21T13:56:02;39.63;;;21.30;;
78728;SDS011;68252;44.944;20.218;2023-11-21T13:58:29;39.83;;;21.67;;
78728;SDS011;68252;44.944;20.218;2023-11-21T14:01:14;36.70;;;19.38;;
78728;SDS011;68252;44.944;20.218;2023-11-21T14:03:55;30.50;;;18.27;;
78728;SDS011;68252;44.944;20.218;2023-11-21T14:06:33;37.03;;;21.23;;
78728;SDS011;68252;44.944;20.218;2023-11-21T14:09:05;36.63;;;21.13;;
78728;SDS011;68252;44.944;20.218;2023-11-21T14:11:32;34.13;;;19.90;;
78728;SDS011;68252;44.944;20.218;2023-11-21T14:13:59;35.58;;;19.25;;
78728;SDS011;68252;44.944;20.218;2023-11-21T14:16:25;34.00;;;17.92;;
78728;SDS011;68252;44.944;20.218;2023-11-21T14:18:51;30.02;;;17.25;;
78728;SDS011;68252;44.944;20.218;2023-11-21T14:21:23;32.30;;;16.55;;
78728;SDS011;68252;44.944;20.218;2023-11-21T14:23:49;32.53;;;16.30;;
78728;SDS011;68252;44.944;20.218;2023-11-21T14:26:16;26.45;;;15.27;;
78728;SDS011;68252;44.944;20.218;2023-11-21T14:28:43;30.25;;;15.95;;
78728;SDS011;68252;44.944;20.218;2023-11-21T14:31:09;31.48;;;16.58;;
78728;SDS011;68252;44.944;20.218;2023-11-21T14:33:39;36.33;;;17.15;;
78728;SDS011;68252;44.944;20.218;2023-11-21T14:36:06;30.52;;;16.90;;